Range, Wisconsin
Current Conditions -  °F | °C
As of 5:15 AM on Sunday 21 Dec 2014 (Local Time) from KOEO Reporting Station
Haze Haze  
Wind Chill: 23°   Ceiling: 900
Heat Index: 32°   Visibility: 5mi
Dew Point: 32°   Wind: 13mph
Humidity: 100%   Direction: 140°SE
Pressure: 29.98"   Gusts: 16mph
Location:  45.3559°N, 92.3527°W
Report Text: KOEO 211115Z AUTO 14011G14KT 5SM BR OVC009 00/00 A2998 RMK AO2 T00000000
Loading
Personal Weather Stations






























Interactive Weather Map New forecast layout! Learn more

10-Day Weather Forecast

Advertisements
Track Severe Weather on mobile